Irving North's Hourly Summary for Tuesday, March 14, 2017
Hour Temp
(f)
RH
(%)
Solar Rad.
(MJ/m2)
Rainfall
(in)
Wind
(mph)
3/14/2017 12:00 AM 45 43 0 0 5.14
3/14/2017 1:00 AM 44 44 0 0 5.95
3/14/2017 2:00 AM 42 50 0 0 3.16
3/14/2017 3:00 AM 41 53 0 0 1.29
3/14/2017 4:00 AM 41 53 0 0 1.44
3/14/2017 5:00 AM 40 53 0 0 2.92
3/14/2017 6:00 AM 40 55 0 0 2.23
3/14/2017 7:00 AM 39 57 0.03 0 1.55
3/14/2017 8:00 AM 41 53 0.52 0 2.52
3/14/2017 9:00 AM 44 49 1.19 0 2.8
3/14/2017 10:00 AM 47 44 1.9 0 3.72
3/14/2017 11:00 AM 49 39 2.56 0 3.25
3/14/2017 12:00 PM 52 35 2.93 0 3.38
3/14/2017 1:00 PM 55 32 3.11 0 2.67
3/14/2017 2:00 PM 58 30 2.95 0 3.72
3/14/2017 3:00 PM 60 28 2.65 0 4
3/14/2017 4:00 PM 62 27 2.14 0 3.33
3/14/2017 5:00 PM 63 29 1.41 0 3.48
3/14/2017 6:00 PM 62 31 0.41 0 4.03
3/14/2017 7:00 PM 61 33 0.05 0 3.59
3/14/2017 8:00 PM 59 35 0 0 4.33
3/14/2017 9:00 PM 57 38 0 0 4.36
3/14/2017 10:00 PM 56 40 0 0 3.61
3/14/2017 11:00 PM 55 43 0 0 5.39
Data Summary 50 41 21.85 0.00 3.41